sensor_id;sensor_type;location;lat;lon;timestamp;P1;durP1;ratioP1;P2;durP2;ratioP2
79410;SDS011;69635;50.964;6.948;2023-06-22T00:01:23;4.85;;;2.55;;
79410;SDS011;69635;50.964;6.948;2023-06-22T00:03:50;4.43;;;2.75;;
79410;SDS011;69635;50.964;6.948;2023-06-22T00:06:21;4.07;;;2.67;;
79410;SDS011;69635;50.964;6.948;2023-06-22T00:08:53;4.18;;;2.70;;
79410;SDS011;69635;50.964;6.948;2023-06-22T00:11:22;4.00;;;2.80;;
79410;SDS011;69635;50.964;6.948;2023-06-22T00:13:50;4.75;;;2.95;;
79410;SDS011;69635;50.964;6.948;2023-06-22T00:16:17;4.78;;;2.58;;
79410;SDS011;69635;50.964;6.948;2023-06-22T00:18:46;4.18;;;3.03;;
79410;SDS011;69635;50.964;6.948;2023-06-22T00:21:16;3.78;;;2.72;;
79410;SDS011;69635;50.964;6.948;2023-06-22T00:23:48;3.45;;;2.50;;
79410;SDS011;69635;50.964;6.948;2023-06-22T00:26:27;6.10;;;2.67;;
79410;SDS011;69635;50.964;6.948;2023-06-22T00:28:58;5.05;;;2.95;;
79410;SDS011;69635;50.964;6.948;2023-06-22T00:31:29;5.82;;;3.13;;
79410;SDS011;69635;50.964;6.948;2023-06-22T00:33:58;4.63;;;2.50;;
79410;SDS011;69635;50.964;6.948;2023-06-22T00:36:24;4.75;;;2.80;;
79410;SDS011;69635;50.964;6.948;2023-06-22T00:38:54;5.47;;;3.03;;
79410;SDS011;69635;50.964;6.948;2023-06-22T00:41:25;5.07;;;2.60;;
79410;SDS011;69635;50.964;6.948;2023-06-22T00:43:55;3.60;;;2.60;;
79410;SDS011;69635;50.964;6.948;2023-06-22T00:46:22;3.90;;;2.65;;
79410;SDS011;69635;50.964;6.948;2023-06-22T00:48:48;4.28;;;3.03;;
79410;SDS011;69635;50.964;6.948;2023-06-22T00:51:15;4.88;;;2.67;;
79410;SDS011;69635;50.964;6.948;2023-06-22T00:53:42;4.45;;;2.63;;
79410;SDS011;69635;50.964;6.948;2023-06-22T00:56:08;4.68;;;2.72;;
79410;SDS011;69635;50.964;6.948;2023-06-22T00:58:37;4.75;;;2.55;;
79410;SDS011;69635;50.964;6.948;2023-06-22T01:01:05;3.90;;;2.78;;
79410;SDS011;69635;50.964;6.948;2023-06-22T01:03:34;6.60;;;2.70;;
79410;SDS011;69635;50.964;6.948;2023-06-22T01:06:07;3.60;;;2.38;;
79410;SDS011;69635;50.964;6.948;2023-06-22T01:08:50;4.75;;;2.92;;
79410;SDS011;69635;50.964;6.948;2023-06-22T01:11:24;3.65;;;2.63;;
79410;SDS011;69635;50.964;6.948;2023-06-22T01:16:35;4.03;;;2.53;;
79410;SDS011;69635;50.964;6.948;2023-06-22T01:22:08;5.15;;;2.30;;
79410;SDS011;69635;50.964;6.948;2023-06-22T01:30:02;5.32;;;2.80;;
79410;SDS011;69635;50.964;6.948;2023-06-22T01:32:32;5.05;;;2.45;;
79410;SDS011;69635;50.964;6.948;2023-06-22T01:35:00;4.50;;;2.70;;
79410;SDS011;69635;50.964;6.948;2023-06-22T01:37:28;4.25;;;2.45;;
79410;SDS011;69635;50.964;6.948;2023-06-22T01:39:57;4.28;;;2.92;;
79410;SDS011;69635;50.964;6.948;2023-06-22T01:42:23;4.00;;;2.53;;
79410;SDS011;69635;50.964;6.948;2023-06-22T01:44:51;6.40;;;2.72;;
79410;SDS011;69635;50.964;6.948;2023-06-22T01:47:18;3.78;;;2.78;;
79410;SDS011;69635;50.964;6.948;2023-06-22T01:49:44;5.95;;;2.88;;
79410;SDS011;69635;50.964;6.948;2023-06-22T01:52:11;3.55;;;2.60;;
79410;SDS011;69635;50.964;6.948;2023-06-22T01:54:37;4.63;;;2.78;;
79410;SDS011;69635;50.964;6.948;2023-06-22T01:57:03;3.45;;;2.60;;
79410;SDS011;69635;50.964;6.948;2023-06-22T01:59:32;5.28;;;2.75;;
79410;SDS011;69635;50.964;6.948;2023-06-22T02:02:04;4.03;;;2.60;;
79410;SDS011;69635;50.964;6.948;2023-06-22T02:04:37;2.92;;;2.03;;
79410;SDS011;69635;50.964;6.948;2023-06-22T02:07:12;4.13;;;2.55;;
79410;SDS011;69635;50.964;6.948;2023-06-22T02:09:42;5.10;;;2.72;;
79410;SDS011;69635;50.964;6.948;2023-06-22T02:12:11;4.70;;;2.95;;
79410;SDS011;69635;50.964;6.948;2023-06-22T02:14:38;3.92;;;2.55;;
79410;SDS011;69635;50.964;6.948;2023-06-22T02:17:05;3.40;;;2.30;;
79410;SDS011;69635;50.964;6.948;2023-06-22T02:19:37;4.85;;;2.60;;
79410;SDS011;69635;50.964;6.948;2023-06-22T02:22:03;5.78;;;2.88;;
79410;SDS011;69635;50.964;6.948;2023-06-22T02:24:38;3.45;;;2.72;;
79410;SDS011;69635;50.964;6.948;2023-06-22T02:27:04;5.78;;;2.80;;
79410;SDS011;69635;50.964;6.948;2023-06-22T02:29:32;3.80;;;2.50;;
79410;SDS011;69635;50.964;6.948;2023-06-22T02:31:57;4.82;;;2.90;;
79410;SDS011;69635;50.964;6.948;2023-06-22T02:34:23;4.75;;;2.72;;
79410;SDS011;69635;50.964;6.948;2023-06-22T02:36:49;3.75;;;2.33;;
79410;SDS011;69635;50.964;6.948;2023-06-22T02:39:21;4.88;;;2.50;;
79410;SDS011;69635;50.964;6.948;2023-06-22T02:41:48;3.50;;;2.35;;
79410;SDS011;69635;50.964;6.948;2023-06-22T02:44:17;3.80;;;2.58;;
79410;SDS011;69635;50.964;6.948;2023-06-22T02:46:43;3.33;;;2.63;;
79410;SDS011;69635;50.964;6.948;2023-06-22T02:49:09;4.15;;;2.60;;
79410;SDS011;69635;50.964;6.948;2023-06-22T02:51:37;3.00;;;2.03;;
79410;SDS011;69635;50.964;6.948;2023-06-22T02:54:04;4.07;;;2.53;;
79410;SDS011;69635;50.964;6.948;2023-06-22T02:56:30;3.60;;;2.40;;
79410;SDS011;69635;50.964;6.948;2023-06-22T02:58:55;3.55;;;2.15;;
79410;SDS011;69635;50.964;6.948;2023-06-22T03:01:25;5.75;;;2.90;;
79410;SDS011;69635;50.964;6.948;2023-06-22T03:03:53;3.95;;;2.42;;
79410;SDS011;69635;50.964;6.948;2023-06-22T03:06:19;3.55;;;2.35;;
79410;SDS011;69635;50.964;6.948;2023-06-22T03:08:48;7.55;;;2.92;;
79410;SDS011;69635;50.964;6.948;2023-06-22T03:11:14;4.13;;;2.33;;
79410;SDS011;69635;50.964;6.948;2023-06-22T03:13:40;4.88;;;3.38;;
79410;SDS011;69635;50.964;6.948;2023-06-22T03:16:05;5.22;;;2.70;;
79410;SDS011;69635;50.964;6.948;2023-06-22T03:18:31;6.43;;;2.38;;
79410;SDS011;69635;50.964;6.948;2023-06-22T03:20:56;3.92;;;2.45;;
79410;SDS011;69635;50.964;6.948;2023-06-22T03:23:21;4.60;;;2.38;;
79410;SDS011;69635;50.964;6.948;2023-06-22T03:25:47;4.13;;;2.70;;
79410;SDS011;69635;50.964;6.948;2023-06-22T03:28:12;4.60;;;2.63;;
79410;SDS011;69635;50.964;6.948;2023-06-22T03:30:38;3.83;;;2.65;;
79410;SDS011;69635;50.964;6.948;2023-06-22T03:33:03;5.00;;;2.78;;
79410;SDS011;69635;50.964;6.948;2023-06-22T03:35:28;4.47;;;2.50;;
79410;SDS011;69635;50.964;6.948;2023-06-22T03:37:54;4.78;;;2.33;;
79410;SDS011;69635;50.964;6.948;2023-06-22T03:40:20;5.05;;;2.55;;
79410;SDS011;69635;50.964;6.948;2023-06-22T03:42:45;3.03;;;2.33;;
79410;SDS011;69635;50.964;6.948;2023-06-22T03:45:11;3.95;;;2.42;;
79410;SDS011;69635;50.964;6.948;2023-06-22T03:47:36;4.50;;;2.75;;
79410;SDS011;69635;50.964;6.948;2023-06-22T03:50:02;4.63;;;2.72;;
79410;SDS011;69635;50.964;6.948;2023-06-22T03:52:28;4.25;;;2.83;;
79410;SDS011;69635;50.964;6.948;2023-06-22T03:54:54;7.25;;;2.95;;
79410;SDS011;69635;50.964;6.948;2023-06-22T03:57:20;4.55;;;2.60;;
79410;SDS011;69635;50.964;6.948;2023-06-22T03:59:46;5.38;;;3.00;;
79410;SDS011;69635;50.964;6.948;2023-06-22T04:02:11;3.50;;;2.63;;
79410;SDS011;69635;50.964;6.948;2023-06-22T04:04:37;4.45;;;2.55;;
79410;SDS011;69635;50.964;6.948;2023-06-22T04:07:04;3.83;;;2.50;;
79410;SDS011;69635;50.964;6.948;2023-06-22T04:09:29;4.50;;;3.00;;
79410;SDS011;69635;50.964;6.948;2023-06-22T04:11:55;4.10;;;2.65;;
79410;SDS011;69635;50.964;6.948;2023-06-22T04:14:20;5.57;;;3.10;;
79410;SDS011;69635;50.964;6.948;2023-06-22T04:16:46;4.22;;;3.05;;
79410;SDS011;69635;50.964;6.948;2023-06-22T04:19:11;5.53;;;3.17;;
79410;SDS011;69635;50.964;6.948;2023-06-22T04:21:41;6.22;;;3.42;;
79410;SDS011;69635;50.964;6.948;2023-06-22T04:24:07;4.18;;;2.90;;
79410;SDS011;69635;50.964;6.948;2023-06-22T04:26:32;5.97;;;3.45;;
79410;SDS011;69635;50.964;6.948;2023-06-22T04:29:02;6.32;;;3.42;;
79410;SDS011;69635;50.964;6.948;2023-06-22T04:31:33;6.15;;;3.55;;
79410;SDS011;69635;50.964;6.948;2023-06-22T04:34:02;7.55;;;3.40;;
79410;SDS011;69635;50.964;6.948;2023-06-22T04:36:35;6.28;;;4.10;;
79410;SDS011;69635;50.964;6.948;2023-06-22T04:39:09;5.57;;;3.60;;
79410;SDS011;69635;50.964;6.948;2023-06-22T04:41:36;6.35;;;3.88;;
79410;SDS011;69635;50.964;6.948;2023-06-22T04:44:11;6.07;;;4.45;;
79410;SDS011;69635;50.964;6.948;2023-06-22T04:46:38;7.28;;;4.75;;
79410;SDS011;69635;50.964;6.948;2023-06-22T04:49:06;6.28;;;4.15;;
79410;SDS011;69635;50.964;6.948;2023-06-22T04:51:40;5.85;;;4.43;;
79410;SDS011;69635;50.964;6.948;2023-06-22T04:54:07;6.22;;;4.50;;
79410;SDS011;69635;50.964;6.948;2023-06-22T04:56:33;7.05;;;4.18;;
79410;SDS011;69635;50.964;6.948;2023-06-22T04:58:59;9.52;;;4.72;;
79410;SDS011;69635;50.964;6.948;2023-06-22T05:01:25;7.95;;;4.68;;
79410;SDS011;69635;50.964;6.948;2023-06-22T05:03:51;9.57;;;5.03;;
79410;SDS011;69635;50.964;6.948;2023-06-22T05:06:21;6.63;;;4.72;;
79410;SDS011;69635;50.964;6.948;2023-06-22T05:08:50;8.00;;;4.90;;
79410;SDS011;69635;50.964;6.948;2023-06-22T05:11:25;7.05;;;4.53;;
79410;SDS011;69635;50.964;6.948;2023-06-22T05:13:53;7.38;;;4.90;;
79410;SDS011;69635;50.964;6.948;2023-06-22T05:16:19;8.35;;;5.50;;
79410;SDS011;69635;50.964;6.948;2023-06-22T05:18:52;9.80;;;5.00;;
79410;SDS011;69635;50.964;6.948;2023-06-22T05:21:20;5.80;;;4.47;;
79410;SDS011;69635;50.964;6.948;2023-06-22T05:23:48;8.15;;;5.72;;
79410;SDS011;69635;50.964;6.948;2023-06-22T05:26:13;11.07;;;5.22;;
79410;SDS011;69635;50.964;6.948;2023-06-22T05:28:38;8.23;;;5.70;;
79410;SDS011;69635;50.964;6.948;2023-06-22T05:31:04;8.23;;;5.45;;
79410;SDS011;69635;50.964;6.948;2023-06-22T05:33:29;6.07;;;4.82;;
79410;SDS011;69635;50.964;6.948;2023-06-22T05:35:55;9.63;;;5.68;;
79410;SDS011;69635;50.964;6.948;2023-06-22T05:38:20;6.80;;;5.50;;
79410;SDS011;69635;50.964;6.948;2023-06-22T05:40:46;8.18;;;5.20;;
79410;SDS011;69635;50.964;6.948;2023-06-22T05:43:11;9.30;;;5.55;;
79410;SDS011;69635;50.964;6.948;2023-06-22T05:45:37;7.60;;;5.10;;
79410;SDS011;69635;50.964;6.948;2023-06-22T05:48:02;7.38;;;4.57;;
79410;SDS011;69635;50.964;6.948;2023-06-22T05:50:28;7.65;;;5.32;;
79410;SDS011;69635;50.964;6.948;2023-06-22T05:52:53;6.47;;;5.05;;
79410;SDS011;69635;50.964;6.948;2023-06-22T05:55:19;7.53;;;5.05;;
79410;SDS011;69635;50.964;6.948;2023-06-22T05:57:44;9.63;;;5.00;;
79410;SDS011;69635;50.964;6.948;2023-06-22T06:00:10;6.93;;;4.70;;
79410;SDS011;69635;50.964;6.948;2023-06-22T06:02:36;7.35;;;5.00;;
79410;SDS011;69635;50.964;6.948;2023-06-22T06:05:02;9.40;;;5.40;;
79410;SDS011;69635;50.964;6.948;2023-06-22T06:07:28;6.68;;;4.60;;
79410;SDS011;69635;50.964;6.948;2023-06-22T06:09:54;9.32;;;5.03;;
79410;SDS011;69635;50.964;6.948;2023-06-22T06:12:19;6.00;;;4.90;;
79410;SDS011;69635;50.964;6.948;2023-06-22T06:14:45;6.95;;;5.00;;
79410;SDS011;69635;50.964;6.948;2023-06-22T06:17:10;9.30;;;6.25;;
79410;SDS011;69635;50.964;6.948;2023-06-22T06:19:36;5.45;;;4.32;;
79410;SDS011;69635;50.964;6.948;2023-06-22T06:22:01;9.88;;;4.90;;
79410;SDS011;69635;50.964;6.948;2023-06-22T06:24:27;7.20;;;4.82;;
79410;SDS011;69635;50.964;6.948;2023-06-22T06:26:52;6.28;;;4.65;;
79410;SDS011;69635;50.964;6.948;2023-06-22T06:29:17;8.55;;;5.00;;
79410;SDS011;69635;50.964;6.948;2023-06-22T06:31:43;8.95;;;5.60;;
79410;SDS011;69635;50.964;6.948;2023-06-22T06:34:08;6.65;;;4.70;;
79410;SDS011;69635;50.964;6.948;2023-06-22T06:36:34;8.63;;;4.85;;
79410;SDS011;69635;50.964;6.948;2023-06-22T06:38:59;8.80;;;5.10;;
79410;SDS011;69635;50.964;6.948;2023-06-22T06:41:25;8.38;;;5.38;;
79410;SDS011;69635;50.964;6.948;2023-06-22T06:43:50;6.90;;;4.95;;
79410;SDS011;69635;50.964;6.948;2023-06-22T06:46:16;9.38;;;5.63;;
79410;SDS011;69635;50.964;6.948;2023-06-22T06:48:44;7.03;;;5.07;;
79410;SDS011;69635;50.964;6.948;2023-06-22T06:51:09;6.47;;;4.63;;
79410;SDS011;69635;50.964;6.948;2023-06-22T06:53:35;6.97;;;4.68;;
79410;SDS011;69635;50.964;6.948;2023-06-22T06:56:03;8.38;;;4.90;;
79410;SDS011;69635;50.964;6.948;2023-06-22T06:58:30;7.53;;;5.00;;
79410;SDS011;69635;50.964;6.948;2023-06-22T07:00:56;6.72;;;4.97;;
79410;SDS011;69635;50.964;6.948;2023-06-22T07:03:21;8.88;;;5.00;;
79410;SDS011;69635;50.964;6.948;2023-06-22T07:05:46;9.23;;;5.50;;
79410;SDS011;69635;50.964;6.948;2023-06-22T07:08:18;6.55;;;4.68;;
79410;SDS011;69635;50.964;6.948;2023-06-22T07:10:43;7.47;;;5.00;;
79410;SDS011;69635;50.964;6.948;2023-06-22T07:13:12;8.50;;;5.18;;
79410;SDS011;69635;50.964;6.948;2023-06-22T07:15:52;6.93;;;4.93;;
79410;SDS011;69635;50.964;6.948;2023-06-22T07:31:40;6.13;;;4.72;;
79410;SDS011;69635;50.964;6.948;2023-06-22T07:34:31;6.63;;;4.45;;
79410;SDS011;69635;50.964;6.948;2023-06-22T07:37:09;6.10;;;4.80;;
79410;SDS011;69635;50.964;6.948;2023-06-22T07:40:18;7.03;;;4.45;;
79410;SDS011;69635;50.964;6.948;2023-06-22T07:42:49;7.20;;;4.70;;
79410;SDS011;69635;50.964;6.948;2023-06-22T07:45:31;7.10;;;4.60;;
79410;SDS011;69635;50.964;6.948;2023-06-22T07:48:01;6.07;;;4.22;;
79410;SDS011;69635;50.964;6.948;2023-06-22T07:50:28;7.57;;;4.70;;
79410;SDS011;69635;50.964;6.948;2023-06-22T07:53:02;6.35;;;4.07;;
79410;SDS011;69635;50.964;6.948;2023-06-22T07:55:35;6.55;;;4.80;;
79410;SDS011;69635;50.964;6.948;2023-06-22T07:58:01;7.47;;;4.97;;
79410;SDS011;69635;50.964;6.948;2023-06-22T08:00:30;6.32;;;4.38;;
79410;SDS011;69635;50.964;6.948;2023-06-22T08:02:57;5.50;;;4.13;;
79410;SDS011;69635;50.964;6.948;2023-06-22T08:05:30;5.97;;;4.43;;
79410;SDS011;69635;50.964;6.948;2023-06-22T08:07:59;7.32;;;5.05;;
79410;SDS011;69635;50.964;6.948;2023-06-22T08:10:47;7.43;;;4.78;;
79410;SDS011;69635;50.964;6.948;2023-06-22T08:13:33;6.78;;;4.85;;
79410;SDS011;69635;50.964;6.948;2023-06-22T08:19:08;6.05;;;4.60;;
79410;SDS011;69635;50.964;6.948;2023-06-22T08:24:18;5.85;;;3.95;;
79410;SDS011;69635;50.964;6.948;2023-06-22T08:26:55;5.88;;;4.22;;
79410;SDS011;69635;50.964;6.948;2023-06-22T08:29:44;6.60;;;4.25;;
79410;SDS011;69635;50.964;6.948;2023-06-22T08:34:59;6.93;;;3.78;;
79410;SDS011;69635;50.964;6.948;2023-06-22T08:37:44;5.95;;;4.63;;
79410;SDS011;69635;50.964;6.948;2023-06-22T08:40:15;5.60;;;3.72;;
79410;SDS011;69635;50.964;6.948;2023-06-22T08:42:48;7.82;;;4.38;;
79410;SDS011;69635;50.964;6.948;2023-06-22T08:52:58;5.78;;;4.30;;
79410;SDS011;69635;50.964;6.948;2023-06-22T08:55:23;6.28;;;4.50;;
79410;SDS011;69635;50.964;6.948;2023-06-22T08:57:58;8.27;;;5.05;;
79410;SDS011;69635;50.964;6.948;2023-06-22T09:00:26;7.95;;;5.07;;
79410;SDS011;69635;50.964;6.948;2023-06-22T09:03:17;8.40;;;4.72;;
79410;SDS011;69635;50.964;6.948;2023-06-22T09:05:50;6.00;;;4.50;;
79410;SDS011;69635;50.964;6.948;2023-06-22T09:11:08;6.50;;;4.55;;
79410;SDS011;69635;50.964;6.948;2023-06-22T09:14:34;6.45;;;4.68;;
79410;SDS011;69635;50.964;6.948;2023-06-22T09:20:47;7.85;;;5.00;;
79410;SDS011;69635;50.964;6.948;2023-06-22T09:23:38;5.60;;;3.95;;
79410;SDS011;69635;50.964;6.948;2023-06-22T09:26:30;6.03;;;4.43;;
79410;SDS011;69635;50.964;6.948;2023-06-22T13:06:28;8.27;;;6.00;;
79410;SDS011;69635;50.964;6.948;2023-06-22T13:08:57;9.18;;;5.82;;
79410;SDS011;69635;50.964;6.948;2023-06-22T13:11:23;9.93;;;6.28;;
79410;SDS011;69635;50.964;6.948;2023-06-22T13:13:48;11.15;;;6.57;;
79410;SDS011;69635;50.964;6.948;2023-06-22T13:16:14;8.55;;;5.43;;
79410;SDS011;69635;50.964;6.948;2023-06-22T13:18:39;8.70;;;5.97;;
79410;SDS011;69635;50.964;6.948;2023-06-22T13:21:05;8.10;;;5.90;;
79410;SDS011;69635;50.964;6.948;2023-06-22T13:23:30;8.07;;;4.65;;
79410;SDS011;69635;50.964;6.948;2023-06-22T13:25:57;7.97;;;4.80;;
79410;SDS011;69635;50.964;6.948;2023-06-22T13:28:23;7.13;;;4.63;;
79410;SDS011;69635;50.964;6.948;2023-06-22T13:30:51;8.18;;;4.65;;
79410;SDS011;69635;50.964;6.948;2023-06-22T13:33:16;6.97;;;4.15;;
79410;SDS011;69635;50.964;6.948;2023-06-22T13:35:42;5.45;;;4.00;;
79410;SDS011;69635;50.964;6.948;2023-06-22T13:38:07;6.78;;;4.40;;
79410;SDS011;69635;50.964;6.948;2023-06-22T13:40:36;6.05;;;3.90;;
79410;SDS011;69635;50.964;6.948;2023-06-22T13:43:03;4.97;;;3.78;;
79410;SDS011;69635;50.964;6.948;2023-06-22T13:45:29;6.47;;;4.40;;
79410;SDS011;69635;50.964;6.948;2023-06-22T13:47:54;8.30;;;4.60;;
79410;SDS011;69635;50.964;6.948;2023-06-22T13:50:20;7.45;;;4.20;;
79410;SDS011;69635;50.964;6.948;2023-06-22T13:52:45;6.25;;;3.95;;
79410;SDS011;69635;50.964;6.948;2023-06-22T13:55:10;5.80;;;4.15;;
79410;SDS011;69635;50.964;6.948;2023-06-22T13:57:36;5.28;;;3.92;;
79410;SDS011;69635;50.964;6.948;2023-06-22T14:00:03;6.57;;;4.00;;
79410;SDS011;69635;50.964;6.948;2023-06-22T14:02:30;5.90;;;3.42;;
79410;SDS011;69635;50.964;6.948;2023-06-22T14:04:55;4.47;;;2.60;;
79410;SDS011;69635;50.964;6.948;2023-06-22T14:07:21;3.97;;;2.80;;
79410;SDS011;69635;50.964;6.948;2023-06-22T14:09:46;3.65;;;2.72;;
79410;SDS011;69635;50.964;6.948;2023-06-22T14:12:12;3.67;;;2.47;;
79410;SDS011;69635;50.964;6.948;2023-06-22T14:14:38;4.18;;;2.78;;
79410;SDS011;69635;50.964;6.948;2023-06-22T14:17:06;3.95;;;2.95;;
79410;SDS011;69635;50.964;6.948;2023-06-22T14:21:57;4.50;;;2.80;;
79410;SDS011;69635;50.964;6.948;2023-06-22T14:24:23;5.05;;;2.97;;
79410;SDS011;69635;50.964;6.948;2023-06-22T14:26:48;5.63;;;3.53;;
79410;SDS011;69635;50.964;6.948;2023-06-22T14:29:14;5.30;;;3.00;;
79410;SDS011;69635;50.964;6.948;2023-06-22T14:31:40;7.07;;;3.25;;
79410;SDS011;69635;50.964;6.948;2023-06-22T14:34:05;5.38;;;3.47;;
79410;SDS011;69635;50.964;6.948;2023-06-22T14:36:31;4.15;;;3.00;;
79410;SDS011;69635;50.964;6.948;2023-06-22T14:38:56;5.18;;;3.47;;
79410;SDS011;69635;50.964;6.948;2023-06-22T14:41:22;5.55;;;3.50;;
79410;SDS011;69635;50.964;6.948;2023-06-22T14:43:47;4.65;;;2.85;;
79410;SDS011;69635;50.964;6.948;2023-06-22T14:46:18;6.15;;;3.60;;
79410;SDS011;69635;50.964;6.948;2023-06-22T14:48:44;5.35;;;3.00;;
79410;SDS011;69635;50.964;6.948;2023-06-22T14:51:10;6.00;;;3.13;;
79410;SDS011;69635;50.964;6.948;2023-06-22T14:53:42;4.40;;;3.10;;
79410;SDS011;69635;50.964;6.948;2023-06-22T14:56:09;4.20;;;2.92;;
79410;SDS011;69635;50.964;6.948;2023-06-22T14:58:35;5.13;;;3.20;;
79410;SDS011;69635;50.964;6.948;2023-06-22T15:01:04;5.13;;;3.35;;
79410;SDS011;69635;50.964;6.948;2023-06-22T15:03:30;5.88;;;3.40;;
79410;SDS011;69635;50.964;6.948;2023-06-22T15:05:57;6.00;;;3.45;;
79410;SDS011;69635;50.964;6.948;2023-06-22T15:08:29;7.03;;;3.20;;
79410;SDS011;69635;50.964;6.948;2023-06-22T15:10:58;5.50;;;3.58;;
79410;SDS011;69635;50.964;6.948;2023-06-22T15:13:26;6.25;;;3.35;;
79410;SDS011;69635;50.964;6.948;2023-06-22T15:15:59;6.03;;;4.05;;
79410;SDS011;69635;50.964;6.948;2023-06-22T15:21:08;7.03;;;4.13;;
79410;SDS011;69635;50.964;6.948;2023-06-22T15:23:34;10.60;;;5.25;;
79410;SDS011;69635;50.964;6.948;2023-06-22T15:26:02;8.73;;;5.40;;
79410;SDS011;69635;50.964;6.948;2023-06-22T15:28:31;9.68;;;5.07;;
79410;SDS011;69635;50.964;6.948;2023-06-22T15:31:03;8.05;;;4.78;;
79410;SDS011;69635;50.964;6.948;2023-06-22T15:37:46;7.88;;;4.93;;
79410;SDS011;69635;50.964;6.948;2023-06-22T15:40:20;10.57;;;6.20;;
79410;SDS011;69635;50.964;6.948;2023-06-22T15:42:51;8.63;;;5.60;;
79410;SDS011;69635;50.964;6.948;2023-06-22T15:45:38;12.40;;;5.65;;
79410;SDS011;69635;50.964;6.948;2023-06-22T15:49:02;9.07;;;5.15;;
79410;SDS011;69635;50.964;6.948;2023-06-22T15:51:33;10.52;;;5.88;;
79410;SDS011;69635;50.964;6.948;2023-06-22T15:53:59;10.77;;;5.63;;
79410;SDS011;69635;50.964;6.948;2023-06-22T15:56:27;13.30;;;6.43;;
79410;SDS011;69635;50.964;6.948;2023-06-22T15:59:03;10.68;;;5.90;;
79410;SDS011;69635;50.964;6.948;2023-06-22T16:01:29;11.02;;;6.15;;
79410;SDS011;69635;50.964;6.948;2023-06-22T16:03:54;11.23;;;6.90;;
79410;SDS011;69635;50.964;6.948;2023-06-22T16:06:20;12.38;;;7.03;;
79410;SDS011;69635;50.964;6.948;2023-06-22T16:08:52;12.32;;;6.75;;
79410;SDS011;69635;50.964;6.948;2023-06-22T16:11:17;9.60;;;5.55;;
79410;SDS011;69635;50.964;6.948;2023-06-22T16:13:43;9.25;;;5.25;;
79410;SDS011;69635;50.964;6.948;2023-06-22T16:16:10;9.50;;;5.47;;
79410;SDS011;69635;50.964;6.948;2023-06-22T16:18:36;9.20;;;5.75;;
79410;SDS011;69635;50.964;6.948;2023-06-22T16:21:07;8.60;;;5.28;;
79410;SDS011;69635;50.964;6.948;2023-06-22T16:23:32;9.40;;;5.93;;
79410;SDS011;69635;50.964;6.948;2023-06-22T16:25:58;11.65;;;6.15;;
79410;SDS011;69635;50.964;6.948;2023-06-22T16:28:23;15.48;;;6.70;;
79410;SDS011;69635;50.964;6.948;2023-06-22T16:30:49;11.85;;;7.25;;
79410;SDS011;69635;50.964;6.948;2023-06-22T16:33:14;10.15;;;6.50;;
79410;SDS011;69635;50.964;6.948;2023-06-22T16:35:40;11.35;;;7.22;;
79410;SDS011;69635;50.964;6.948;2023-06-22T16:38:10;13.73;;;6.75;;
79410;SDS011;69635;50.964;6.948;2023-06-22T16:40:38;8.68;;;4.88;;
79410;SDS011;69635;50.964;6.948;2023-06-22T16:43:15;10.82;;;6.78;;
79410;SDS011;69635;50.964;6.948;2023-06-22T16:45:49;11.40;;;6.53;;
79410;SDS011;69635;50.964;6.948;2023-06-22T16:48:27;9.18;;;6.18;;
79410;SDS011;69635;50.964;6.948;2023-06-22T16:50:53;9.65;;;6.32;;
79410;SDS011;69635;50.964;6.948;2023-06-22T16:53:46;11.02;;;6.30;;
79410;SDS011;69635;50.964;6.948;2023-06-22T16:56:19;9.13;;;6.45;;
79410;SDS011;69635;50.964;6.948;2023-06-22T16:58:50;8.73;;;6.43;;
79410;SDS011;69635;50.964;6.948;2023-06-22T17:01:18;10.77;;;7.28;;
79410;SDS011;69635;50.964;6.948;2023-06-22T17:03:47;9.07;;;6.60;;
79410;SDS011;69635;50.964;6.948;2023-06-22T17:06:21;9.32;;;5.95;;
79410;SDS011;69635;50.964;6.948;2023-06-22T17:08:47;10.35;;;4.53;;
79410;SDS011;69635;50.964;6.948;2023-06-22T17:11:13;6.07;;;2.83;;
79410;SDS011;69635;50.964;6.948;2023-06-22T17:13:39;3.60;;;2.10;;
79410;SDS011;69635;50.964;6.948;2023-06-22T17:16:05;3.08;;;1.98;;
79410;SDS011;69635;50.964;6.948;2023-06-22T17:18:46;2.20;;;1.42;;
79410;SDS011;69635;50.964;6.948;2023-06-22T17:21:21;4.05;;;3.28;;
79410;SDS011;69635;50.964;6.948;2023-06-22T17:24:14;4.28;;;2.20;;
79410;SDS011;69635;50.964;6.948;2023-06-22T17:26:44;3.65;;;1.88;;
79410;SDS011;69635;50.964;6.948;2023-06-22T17:29:11;4.20;;;2.60;;
79410;SDS011;69635;50.964;6.948;2023-06-22T17:31:38;3.92;;;2.35;;
79410;SDS011;69635;50.964;6.948;2023-06-22T17:34:15;3.03;;;2.25;;
79410;SDS011;69635;50.964;6.948;2023-06-22T17:36:45;4.03;;;2.38;;
79410;SDS011;69635;50.964;6.948;2023-06-22T17:39:19;4.65;;;2.22;;
79410;SDS011;69635;50.964;6.948;2023-06-22T17:41:45;4.10;;;2.50;;
79410;SDS011;69635;50.964;6.948;2023-06-22T17:44:12;5.43;;;2.75;;
79410;SDS011;69635;50.964;6.948;2023-06-22T17:46:42;4.43;;;2.50;;
79410;SDS011;69635;50.964;6.948;2023-06-22T17:49:07;5.40;;;3.05;;
79410;SDS011;69635;50.964;6.948;2023-06-22T17:51:34;5.53;;;3.08;;
79410;SDS011;69635;50.964;6.948;2023-06-22T17:54:01;4.22;;;3.08;;
79410;SDS011;69635;50.964;6.948;2023-06-22T17:56:27;7.20;;;3.50;;
79410;SDS011;69635;50.964;6.948;2023-06-22T17:58:54;4.90;;;3.58;;
79410;SDS011;69635;50.964;6.948;2023-06-22T18:01:36;7.00;;;4.43;;
79410;SDS011;69635;50.964;6.948;2023-06-22T18:06:36;10.88;;;5.47;;
79410;SDS011;69635;50.964;6.948;2023-06-22T18:09:06;8.27;;;5.43;;
79410;SDS011;69635;50.964;6.948;2023-06-22T18:11:34;9.52;;;5.95;;
79410;SDS011;69635;50.964;6.948;2023-06-22T18:14:04;11.23;;;7.50;;
79410;SDS011;69635;50.964;6.948;2023-06-22T18:16:31;12.80;;;8.05;;
79410;SDS011;69635;50.964;6.948;2023-06-22T18:18:58;12.95;;;9.15;;
79410;SDS011;69635;50.964;6.948;2023-06-22T18:21:28;12.55;;;8.10;;
79410;SDS011;69635;50.964;6.948;2023-06-22T18:23:55;14.13;;;9.93;;
79410;SDS011;69635;50.964;6.948;2023-06-22T18:26:22;18.00;;;11.88;;
79410;SDS011;69635;50.964;6.948;2023-06-22T18:28:54;21.10;;;12.02;;
79410;SDS011;69635;50.964;6.948;2023-06-22T18:31:22;20.13;;;11.73;;
79410;SDS011;69635;50.964;6.948;2023-06-22T18:33:56;21.65;;;12.70;;
79410;SDS011;69635;50.964;6.948;2023-06-22T18:36:45;19.90;;;12.90;;
79410;SDS011;69635;50.964;6.948;2023-06-22T18:39:14;16.13;;;10.88;;
79410;SDS011;69635;50.964;6.948;2023-06-22T18:41:41;19.52;;;13.27;;
79410;SDS011;69635;50.964;6.948;2023-06-22T18:44:26;16.50;;;11.68;;
79410;SDS011;69635;50.964;6.948;2023-06-22T18:46:56;18.55;;;12.13;;
79410;SDS011;69635;50.964;6.948;2023-06-22T18:49:23;20.00;;;12.52;;
79410;SDS011;69635;50.964;6.948;2023-06-22T18:54:19;18.05;;;11.82;;
79410;SDS011;69635;50.964;6.948;2023-06-22T18:56:53;19.38;;;12.25;;
79410;SDS011;69635;50.964;6.948;2023-06-22T19:02:07;17.30;;;10.60;;
79410;SDS011;69635;50.964;6.948;2023-06-22T19:04:34;17.77;;;11.20;;
79410;SDS011;69635;50.964;6.948;2023-06-22T19:07:00;18.40;;;11.93;;
79410;SDS011;69635;50.964;6.948;2023-06-22T19:09:26;20.83;;;13.38;;
79410;SDS011;69635;50.964;6.948;2023-06-22T19:12:15;18.58;;;12.32;;
79410;SDS011;69635;50.964;6.948;2023-06-22T19:15:12;19.15;;;11.15;;
79410;SDS011;69635;50.964;6.948;2023-06-22T19:17:52;21.90;;;12.25;;
79410;SDS011;69635;50.964;6.948;2023-06-22T19:26:18;10.52;;;6.00;;
79410;SDS011;69635;50.964;6.948;2023-06-22T19:28:47;7.10;;;5.15;;
79410;SDS011;69635;50.964;6.948;2023-06-22T19:31:13;6.63;;;4.25;;
79410;SDS011;69635;50.964;6.948;2023-06-22T19:41:29;2.85;;;2.40;;
